CheckWX is a tool to help pilots better visualize weather data.  It is not intended as a substitute for an official pre-flight weather briefing.

22:33:31 UTC

KSGJ METAR
Northeast Florida Regional Airport
St Augustine, Florida, USA
Current

38 mins ago

KSGJ 262156Z 04015KT 10SM BKN017 BKN065 BKN100 18/13 A3002 RMK AO2 SLP164 T01780133
Observed
Mar-26 @ 21:56 UTC
Wind
  • 040° at 15 KTS
Visibility
10 SM
Flight Rules
MVFR
Cloud Levels
  • Broken at 1,700' AGL
  • Broken at 6,500' AGL
  • Broken at 10,000' AGL
Temperature
18°C / 64°F
Dewpoint
13°C / 55°F
Humidity
73%
Altimeter
30.02" Hg
Pressure
1016.4 hPa
Previous

2 hours ago

KSGJ 262103Z 03012KT 10SM OVC015 18/14 A3002 RMK AO2
Observed
Mar-26 @ 21:03 UTC
Wind
  • 030° at 12 KTS
Visibility
10 SM
Flight Rules
MVFR
Cloud Levels
  • Overcast at 1,500' AGL
Temperature
18°C / 64°F
Dewpoint
14°C / 57°F
Humidity
78%
Altimeter
30.02" Hg
Pressure
1016.62 hPa
Previous

2 hours ago

KSGJ 262056Z 04015KT 10SM BKN013 18/14 A3002 RMK AO2 SLP164 T01830139 55001
Observed
Mar-26 @ 20:56 UTC
Wind
  • 040° at 15 KTS
Visibility
10 SM
Flight Rules
MVFR
Cloud Levels
  • Broken at 1,300' AGL
Temperature
18°C / 64°F
Dewpoint
14°C / 57°F
Humidity
78%
Altimeter
30.02" Hg
Pressure
1016.4 hPa